createdAt,value
2019-04-27T00:02:36.652Z,38.43
2019-04-27T00:05:26.657Z,38.97
2019-04-27T00:07:57.970Z,37.07
2019-04-27T00:10:30.450Z,42.00
2019-04-27T00:13:02.244Z,42.67
2019-04-27T00:15:37.010Z,40.70
2019-04-27T00:18:16.870Z,40.87
2019-04-27T00:20:55.276Z,38.80
2019-04-27T00:23:26.229Z,40.50
2019-04-27T00:25:55.553Z,39.87
2019-04-27T00:28:24.933Z,39.23
2019-04-27T00:30:54.393Z,41.67
2019-04-27T00:33:23.879Z,38.83
2019-04-27T00:35:57.600Z,40.20
2019-04-27T00:38:37.295Z,39.53
2019-04-27T00:41:12.002Z,37.63
2019-04-27T00:43:42.730Z,40.40
2019-04-27T00:46:13.801Z,38.47
2019-04-27T00:48:43.513Z,38.97
2019-04-27T00:51:14.447Z,38.63
2019-04-27T00:53:45.015Z,40.33
2019-04-27T00:56:34.316Z,39.47
2019-04-27T00:59:23.805Z,38.00
2019-04-27T01:01:54.955Z,37.47
2019-04-27T01:04:31.632Z,37.50
2019-04-27T01:07:02.828Z,38.60
2019-04-27T01:09:33.875Z,42.60
2019-04-27T01:12:03.795Z,41.33
2019-04-27T01:14:34.275Z,33.13
2019-04-27T01:17:04.005Z,36.73
2019-04-27T01:19:33.311Z,32.70
2019-04-27T01:22:02.623Z,34.90
2019-04-27T01:24:31.967Z,35.80
2019-04-27T01:27:11.739Z,31.43
2019-04-27T01:29:41.736Z,33.10
2019-04-27T01:32:16.540Z,30.00
2019-04-27T01:34:45.863Z,31.17
2019-04-27T01:37:20.902Z,30.57
2019-04-27T01:39:50.454Z,28.53
2019-04-27T01:42:19.886Z,29.77
2019-04-27T01:44:50.823Z,29.97
2019-04-27T01:47:20.397Z,31.17
2019-04-27T01:49:49.723Z,29.03
2019-04-27T01:52:22.675Z,28.50
2019-04-27T01:54:51.995Z,29.90
2019-04-27T01:57:21.466Z,27.93
2019-04-27T01:59:50.852Z,28.40
2019-04-27T02:02:22.724Z,26.13
2019-04-27T02:05:08.994Z,25.70
2019-04-27T02:07:39.006Z,26.93
2019-04-27T02:10:12.347Z,25.80
2019-04-27T02:12:43.962Z,25.30
2019-04-27T02:15:15.924Z,25.83
2019-04-27T02:17:45.242Z,24.97
2019-04-27T02:20:14.806Z,25.40
2019-04-27T02:22:44.118Z,24.70
2019-04-27T02:25:16.441Z,24.27
2019-04-27T02:27:49.089Z,25.13
2019-04-27T02:30:20.748Z,25.00
2019-04-27T02:33:12.821Z,25.27
2019-04-27T02:35:42.035Z,26.53
2019-04-27T02:38:11.916Z,27.57
2019-04-27T02:40:51.473Z,28.53
2019-04-27T02:43:22.731Z,29.23
2019-04-27T02:45:52.213Z,31.60
2019-04-27T02:48:21.561Z,31.00
2019-04-27T02:50:52.529Z,30.30
2019-04-27T02:53:39.679Z,31.13
2019-04-27T02:56:10.331Z,30.40
2019-04-27T02:58:40.689Z,30.73
2019-04-27T03:01:10.196Z,33.93
2019-04-27T03:03:41.192Z,32.57
2019-04-27T03:06:10.701Z,33.97
2019-04-27T03:08:42.741Z,32.53
2019-04-27T03:11:11.056Z,31.93
2019-04-27T03:13:51.759Z,32.07
2019-04-27T03:16:22.129Z,35.13
2019-04-27T03:19:14.778Z,33.83
2019-04-27T03:21:55.759Z,32.23
2019-04-27T03:24:44.108Z,30.53
2019-04-27T03:27:15.063Z,31.13
2019-04-27T03:29:44.466Z,30.47
2019-04-27T03:32:13.780Z,29.87
2019-04-27T03:34:43.089Z,27.93
2019-04-27T03:37:12.476Z,28.47
2019-04-27T03:39:41.774Z,28.97
2019-04-27T03:42:11.971Z,28.53
2019-04-27T03:44:44.301Z,28.10
2019-04-27T03:47:13.625Z,28.17
2019-04-27T03:49:44.868Z,27.97
2019-04-27T03:52:25.062Z,28.47
2019-04-27T03:55:04.971Z,27.53
2019-04-27T03:57:40.279Z,28.37
2019-04-27T04:00:13.971Z,28.03
2019-04-27T04:02:43.298Z,28.73
2019-04-27T04:05:12.822Z,29.03
2019-04-27T04:07:42.261Z,29.50
2019-04-27T04:10:11.753Z,28.10
2019-04-27T04:12:45.680Z,29.10
2019-04-27T04:15:29.802Z,30.40
2019-04-27T04:17:59.540Z,30.57
2019-04-27T04:20:30.432Z,29.53
2019-04-27T04:23:03.201Z,28.07
2019-04-27T04:25:33.070Z,28.07
2019-04-27T04:28:03.135Z,27.17
2019-04-27T04:30:32.447Z,26.93
2019-04-27T04:33:01.842Z,26.63
2019-04-27T04:35:33.285Z,25.63
2019-04-27T04:38:02.260Z,25.77
2019-04-27T04:40:40.052Z,26.07
2019-04-27T04:43:14.148Z,26.27
2019-04-27T04:45:50.124Z,25.17
2019-04-27T04:48:20.706Z,26.40
2019-04-27T04:50:50.262Z,25.17
2019-04-27T04:53:20.748Z,26.00
2019-04-27T04:55:50.372Z,24.93
2019-04-27T04:58:20.982Z,24.63
2019-04-27T05:00:50.583Z,25.73
2019-04-27T05:03:21.817Z,25.40
2019-04-27T05:05:52.012Z,24.47
2019-04-27T05:08:21.446Z,25.17
2019-04-27T05:10:50.898Z,24.00
2019-04-27T05:13:20.355Z,23.33
2019-04-27T05:15:51.302Z,23.57
2019-04-27T05:18:20.785Z,24.10
2019-04-27T05:20:51.890Z,24.67
2019-04-27T05:23:21.431Z,22.37
2019-04-27T05:25:50.753Z,24.83
2019-04-27T05:28:20.081Z,24.07
2019-04-27T05:30:49.391Z,20.57
2019-04-27T05:33:18.882Z,18.20
2019-04-27T05:35:49.184Z,16.27
2019-04-27T05:38:19.872Z,14.80
2019-04-27T05:40:49.947Z,13.50
2019-04-27T05:43:21.185Z,12.50
2019-04-27T05:46:22.295Z,13.50
2019-04-27T05:48:51.633Z,14.97
2019-04-27T05:51:20.970Z,14.23
2019-04-27T05:53:50.445Z,13.78
2019-04-27T05:56:21.648Z,12.40
2019-04-27T05:58:52.410Z,12.47
2019-04-27T06:01:21.721Z,11.78
2019-04-27T06:03:51.052Z,11.15
2019-04-27T06:06:20.396Z,10.65
2019-04-27T06:08:49.770Z,10.80
2019-04-27T06:11:19.660Z,10.25
2019-04-27T06:13:50.624Z,9.63
2019-04-27T06:16:19.932Z,9.38
2019-04-27T06:18:56.747Z,8.60
2019-04-27T06:21:26.672Z,8.70
2019-04-27T06:23:56.041Z,7.33
2019-04-27T06:26:25.370Z,7.67
2019-04-27T06:28:54.703Z,8.28
2019-04-27T06:31:24.023Z,7.97
2019-04-27T06:33:53.347Z,7.97
2019-04-27T06:36:22.656Z,7.60
2019-04-27T06:38:51.988Z,6.75
2019-04-27T06:41:21.326Z,6.40
2019-04-27T06:43:50.639Z,5.00
2019-04-27T06:46:20.785Z,3.20
2019-04-27T06:48:50.115Z,2.77
2019-04-27T06:51:19.634Z,2.80
2019-04-27T06:53:49.485Z,3.17
2019-04-27T06:56:19.779Z,2.77
2019-04-27T06:58:49.246Z,3.25
2019-04-27T07:01:19.051Z,2.83
2019-04-27T07:03:48.713Z,3.05
2019-04-27T07:06:18.820Z,2.55
2019-04-27T07:08:49.828Z,3.05
2019-04-27T07:11:19.765Z,2.80
2019-04-27T07:13:49.770Z,3.15
2019-04-27T07:16:19.564Z,3.08
2019-04-27T07:18:50.441Z,2.92
2019-04-27T07:21:24.721Z,2.87
2019-04-27T07:23:52.509Z,2.87
2019-04-27T07:26:26.508Z,3.00
2019-04-27T07:28:55.910Z,2.80
2019-04-27T07:31:25.331Z,2.80
2019-04-27T07:33:54.680Z,2.87
2019-04-27T07:36:24.013Z,2.77
2019-04-27T07:38:55.402Z,3.02
2019-04-27T07:41:24.738Z,2.20
2019-04-27T07:44:01.888Z,2.60
2019-04-27T07:46:32.155Z,2.52
2019-04-27T07:49:01.483Z,2.52
2019-04-27T07:51:34.040Z,2.60
2019-04-27T07:54:01.806Z,2.10
2019-04-27T07:56:32.056Z,2.72
2019-04-27T07:59:01.376Z,2.10
2019-04-27T08:01:33.746Z,2.67
2019-04-27T08:04:06.281Z,2.10
2019-04-27T08:06:38.773Z,2.27
2019-04-27T08:09:09.347Z,2.52
2019-04-27T08:11:39.436Z,2.60
2019-04-27T08:17:44.596Z,2.70
2019-04-27T08:20:14.985Z,2.92
2019-04-27T08:22:44.357Z,2.98
2019-04-27T08:26:18.693Z,2.75
2019-04-27T08:28:55.367Z,3.15
2019-04-27T08:31:28.689Z,2.90
2019-04-27T08:33:58.585Z,3.08
2019-04-27T08:36:30.305Z,2.90
2019-04-27T08:38:59.617Z,2.85
2019-04-27T08:41:29.577Z,2.65
2019-04-27T08:43:59.088Z,2.85
2019-04-27T08:46:29.339Z,2.50
2019-04-27T08:48:58.783Z,2.70
2019-04-27T08:51:29.093Z,2.20
2019-04-27T08:53:59.145Z,2.65
2019-04-27T08:56:30.431Z,2.30
2019-04-27T08:58:59.616Z,2.75
2019-04-27T09:01:30.011Z,3.08
2019-04-27T09:03:59.386Z,3.45
2019-04-27T09:06:28.888Z,3.65
2019-04-27T09:09:09.236Z,3.30
2019-04-27T09:11:40.016Z,3.02
2019-04-27T09:17:02.299Z,3.57
2019-04-27T09:19:39.505Z,3.90
2019-04-27T09:22:15.577Z,3.65
2019-04-27T09:24:40.325Z,4.45
2019-04-27T09:27:09.774Z,4.70
2019-04-27T09:29:40.070Z,4.62
2019-04-27T09:32:10.376Z,4.55
2019-04-27T09:34:46.486Z,4.50
2019-04-27T09:37:16.093Z,4.30
2019-04-27T09:39:46.107Z,4.45
2019-04-27T09:42:16.740Z,4.75
2019-04-27T09:44:47.624Z,5.07
2019-04-27T09:47:17.135Z,5.77
2019-04-27T09:49:46.515Z,5.17
2019-04-27T09:52:24.361Z,5.33
2019-04-27T09:54:48.141Z,5.30
2019-04-27T09:57:17.639Z,5.83
2019-04-27T09:59:46.936Z,5.60
2019-04-27T10:02:17.223Z,5.33
2019-04-27T10:04:46.532Z,5.80
2019-04-27T10:07:16.504Z,5.27
2019-04-27T10:09:47.464Z,5.43
2019-04-27T10:12:18.544Z,5.43
2019-04-27T10:14:47.951Z,6.37
2019-04-27T10:17:17.282Z,5.57
2019-04-27T10:19:46.596Z,6.43
2019-04-27T10:22:16.069Z,5.90
2019-04-27T10:24:45.488Z,6.10
2019-04-27T10:27:16.183Z,6.27
2019-04-27T10:29:46.782Z,6.70
2019-04-27T10:32:16.406Z,5.57
2019-04-27T10:34:46.963Z,4.77
2019-04-27T10:37:16.300Z,4.80
2019-04-27T10:39:46.036Z,4.77
2019-04-27T10:42:15.770Z,4.60
2019-04-27T10:44:46.224Z,4.80
2019-04-27T10:47:16.731Z,4.90
2019-04-27T10:49:46.559Z,4.83
2019-04-27T10:52:17.438Z,5.20
2019-04-27T10:54:46.901Z,5.70
2019-04-27T10:57:16.215Z,5.97
2019-04-27T10:59:46.565Z,5.50
2019-04-27T11:02:15.879Z,5.10
2019-04-27T11:04:56.577Z,4.73
2019-04-27T11:07:29.334Z,4.80
2019-04-27T11:09:58.656Z,5.03
2019-04-27T11:12:28.045Z,4.57
2019-04-27T11:14:57.421Z,4.80
2019-04-27T11:17:26.829Z,5.30
2019-04-27T11:19:56.200Z,5.60
2019-04-27T11:22:26.082Z,5.30
2019-04-27T11:24:56.514Z,6.73
2019-04-27T11:27:25.890Z,6.37
2019-04-27T11:29:56.434Z,7.40
2019-04-27T11:32:25.814Z,6.87
2019-04-27T11:34:59.454Z,6.57
2019-04-27T11:37:30.423Z,5.80
2019-04-27T11:39:59.802Z,5.77
2019-04-27T11:42:29.139Z,5.57
2019-04-27T11:44:59.403Z,5.40
2019-04-27T11:47:28.730Z,5.53
2019-04-27T11:49:58.055Z,4.90
2019-04-27T11:52:27.434Z,5.70
2019-04-27T11:54:56.801Z,4.47
2019-04-27T11:57:26.120Z,4.80
2019-04-27T11:59:56.281Z,5.20
2019-04-27T12:02:26.454Z,4.73
2019-04-27T12:04:55.763Z,4.93
2019-04-27T12:07:25.076Z,4.83
2019-04-27T12:09:55.536Z,4.10
2019-04-27T12:12:26.232Z,4.53
2019-04-27T12:14:56.103Z,3.97
2019-04-27T12:17:27.722Z,3.97
2019-04-27T12:19:56.519Z,4.23
2019-04-27T12:22:25.836Z,4.10
2019-04-27T12:24:56.160Z,3.53
2019-04-27T12:27:40.366Z,3.37
2019-04-27T12:30:16.167Z,4.00
2019-04-27T12:32:45.826Z,3.43
2019-04-27T12:35:16.656Z,3.20
2019-04-27T12:37:46.291Z,3.13
2019-04-27T12:40:19.623Z,3.53
2019-04-27T12:42:54.925Z,3.67
2019-04-27T12:45:24.301Z,3.70
2019-04-27T12:47:53.633Z,3.40
2019-04-27T12:50:23.421Z,3.77
2019-04-27T12:52:57.320Z,3.63
2019-04-27T12:55:30.953Z,3.77
2019-04-27T12:58:16.901Z,3.87
2019-04-27T13:00:47.860Z,4.50
2019-04-27T13:03:17.175Z,3.93
2019-04-27T13:05:46.548Z,4.60
2019-04-27T13:08:15.875Z,4.00
2019-04-27T13:10:45.178Z,3.93
2019-04-27T13:13:16.434Z,4.27
2019-04-27T13:15:46.291Z,3.83
2019-04-27T13:18:16.721Z,4.20
2019-04-27T13:20:46.171Z,4.80
2019-04-27T13:23:15.503Z,4.83
2019-04-27T13:25:46.087Z,5.13
2019-04-27T13:28:15.570Z,5.70
2019-04-27T13:30:45.614Z,5.07
2019-04-27T13:33:17.539Z,3.97
2019-04-27T13:35:48.448Z,3.47
2019-04-27T13:42:15.680Z,3.23
2019-04-27T13:45:16.990Z,4.00
2019-04-27T13:48:14.629Z,4.07
2019-04-27T13:51:06.515Z,4.10
2019-04-27T13:53:47.524Z,4.47
2019-04-27T14:03:04.554Z,4.77
2019-04-27T14:06:03.863Z,5.30
2019-04-27T14:12:02.287Z,4.93
2019-04-27T14:14:36.848Z,5.93
2019-04-27T14:17:09.605Z,5.20
2019-04-27T14:33:03.226Z,5.87
2019-04-27T14:36:13.463Z,5.73
2019-04-27T14:39:22.928Z,7.87
2019-04-27T14:41:52.231Z,6.47
2019-04-27T14:44:23.180Z,6.43
2019-04-27T14:46:54.000Z,5.77
2019-04-27T14:49:25.664Z,6.83
2019-04-27T14:51:55.052Z,6.00
2019-04-27T14:54:26.015Z,6.23
2019-04-27T14:57:01.818Z,5.90
2019-04-27T15:02:18.605Z,5.90
2019-04-27T15:05:30.588Z,5.87
2019-04-27T15:08:09.979Z,5.60
2019-04-27T15:10:39.304Z,6.00
2019-04-27T15:13:22.646Z,6.33
2019-04-27T15:15:51.987Z,6.50
2019-04-27T15:18:42.163Z,5.93
2019-04-27T15:24:41.242Z,6.57
2019-04-27T15:27:25.223Z,5.73
2019-04-27T15:30:06.045Z,6.57
2019-04-27T15:33:25.228Z,6.70
2019-04-27T15:46:08.955Z,5.57
2019-04-27T15:49:11.371Z,5.87
2019-04-27T15:54:35.801Z,5.20
2019-04-27T16:00:28.663Z,5.00
2019-04-27T16:03:54.847Z,5.17
2019-04-27T16:09:01.457Z,4.77
2019-04-27T16:14:53.639Z,4.37
2019-04-27T16:18:03.011Z,3.93
2019-04-27T16:20:28.897Z,3.90
2019-04-27T16:22:56.795Z,3.80
2019-04-27T16:29:28.076Z,4.20
2019-04-27T16:35:19.415Z,3.70
2019-04-27T16:53:39.517Z,4.50
2019-04-27T17:03:48.602Z,4.93
2019-04-27T17:10:42.305Z,5.20
2019-04-27T17:13:14.715Z,5.67
2019-04-27T17:16:05.410Z,5.87
2019-04-27T17:19:04.914Z,6.90
2019-04-27T17:21:38.684Z,6.87
2019-04-27T17:24:14.832Z,19.03
2019-04-27T17:26:44.153Z,6.60
2019-04-27T17:29:20.175Z,6.77
2019-04-27T17:31:50.637Z,7.20
2019-04-27T17:34:25.365Z,7.00
2019-04-27T17:36:54.681Z,7.60
2019-04-27T17:39:23.509Z,7.60
2019-04-27T17:41:53.172Z,8.50
2019-04-27T17:44:23.275Z,7.77
2019-04-27T17:46:52.793Z,8.33
2019-04-27T17:49:22.256Z,7.40
2019-04-27T17:51:52.725Z,8.00
2019-04-27T17:54:24.114Z,8.47
2019-04-27T17:56:53.443Z,7.70
2019-04-27T17:59:22.732Z,7.90
2019-04-27T18:01:53.948Z,8.33
2019-04-27T18:04:23.051Z,8.07
2019-04-27T18:06:55.505Z,7.80
2019-04-27T18:09:23.457Z,7.90
2019-04-27T18:11:54.274Z,7.97
2019-04-27T18:14:24.002Z,7.83
2019-04-27T18:16:53.323Z,8.03
2019-04-27T18:19:24.259Z,7.40
2019-04-27T18:21:56.828Z,7.37
2019-04-27T18:24:29.090Z,6.60
2019-04-27T18:27:04.435Z,6.33
2019-04-27T18:29:33.944Z,6.33
2019-04-27T18:32:03.251Z,6.07
2019-04-27T18:34:32.626Z,6.07
2019-04-27T18:37:04.159Z,5.90
2019-04-27T18:39:32.938Z,6.03
2019-04-27T18:42:02.250Z,5.50
2019-04-27T18:44:31.969Z,5.37
2019-04-27T18:47:02.392Z,5.87
2019-04-27T18:49:33.559Z,5.67
2019-04-27T18:52:10.675Z,5.37
2019-04-27T18:54:41.963Z,5.70
2019-04-27T18:57:15.014Z,6.07
2019-04-27T18:59:42.003Z,6.60
2019-04-27T19:02:11.311Z,7.53
2019-04-27T19:04:40.669Z,6.87
2019-04-27T19:07:10.022Z,7.03
2019-04-27T19:09:39.404Z,7.17
2019-04-27T19:12:08.780Z,7.13
2019-04-27T19:14:38.081Z,6.50
2019-04-27T19:17:07.414Z,7.40
2019-04-27T19:19:36.776Z,6.47
2019-04-27T19:22:06.088Z,6.60
2019-04-27T19:24:35.393Z,7.23
2019-04-27T19:27:16.140Z,8.03
2019-04-27T19:29:41.956Z,8.13
2019-04-27T19:32:11.371Z,7.67
2019-04-27T19:34:40.658Z,8.03
2019-04-27T19:37:10.047Z,7.70
2019-04-27T19:39:39.512Z,8.17
2019-04-27T19:42:08.987Z,8.50
2019-04-27T19:44:38.904Z,9.63
2019-04-27T19:47:10.281Z,9.27
2019-04-27T19:49:39.355Z,10.27
2019-04-27T19:52:08.826Z,9.27
2019-04-27T19:54:39.790Z,9.03
2019-04-27T19:57:09.285Z,8.90
2019-04-27T19:59:40.309Z,10.00
2019-04-27T20:02:11.260Z,15.40
2019-04-27T20:04:41.463Z,9.23
2019-04-27T20:07:10.782Z,9.50
2019-04-27T20:09:58.345Z,9.30
2019-04-27T20:12:27.928Z,8.43
2019-04-27T20:14:57.241Z,9.57
2019-04-27T20:17:31.230Z,9.77
2019-04-27T20:20:00.618Z,9.57
2019-04-27T20:22:30.099Z,9.80
2019-04-27T20:25:01.524Z,9.70
2019-04-27T20:27:34.866Z,8.13
2019-04-27T20:30:03.216Z,8.67
2019-04-27T20:32:33.239Z,8.77
2019-04-27T20:35:02.596Z,8.17
2019-04-27T20:37:32.972Z,8.10
2019-04-27T20:40:02.367Z,7.13
2019-04-27T20:42:31.764Z,6.63
2019-04-27T20:45:02.015Z,7.00
2019-04-27T20:47:32.762Z,6.33
2019-04-27T20:50:02.143Z,6.63
2019-04-27T20:52:34.706Z,6.23
2019-04-27T20:55:06.544Z,5.97
2019-04-27T20:57:35.834Z,5.37
2019-04-27T21:00:07.091Z,5.30
2019-04-27T21:02:51.988Z,5.87
2019-04-27T21:05:26.176Z,5.70
2019-04-27T21:07:57.126Z,5.70
2019-04-27T21:10:26.436Z,5.50
2019-04-27T21:13:05.804Z,6.00
2019-04-27T21:15:35.502Z,6.27
2019-04-27T21:18:08.084Z,6.70
2019-04-27T21:20:37.421Z,6.07
2019-04-27T21:23:06.767Z,6.57
2019-04-27T21:25:36.228Z,5.43
2019-04-27T21:28:16.477Z,6.53
2019-04-27T21:30:41.190Z,6.43
2019-04-27T21:33:11.483Z,5.97
2019-04-27T21:35:41.077Z,6.37
2019-04-27T21:38:11.640Z,6.73
2019-04-27T21:40:43.969Z,6.50
2019-04-27T21:43:14.915Z,5.87
2019-04-27T21:45:44.227Z,7.03
2019-04-27T21:48:14.443Z,6.60
2019-04-27T21:50:43.776Z,6.50
2019-04-27T21:53:14.720Z,7.40
2019-04-27T21:55:44.073Z,7.93
2019-04-27T21:58:13.400Z,7.70
2019-04-27T22:00:45.345Z,8.13
2019-04-27T22:03:21.368Z,8.33
2019-04-27T22:05:51.598Z,9.07
2019-04-27T22:08:21.478Z,9.73
2019-04-27T22:10:52.484Z,9.50
2019-04-27T22:13:22.366Z,10.17
2019-04-27T22:15:51.685Z,9.27
2019-04-27T22:18:21.251Z,9.30
2019-04-27T22:20:51.181Z,9.53
2019-04-27T22:23:23.113Z,9.47
2019-04-27T22:25:54.557Z,9.50
2019-04-27T22:28:23.639Z,9.80
2019-04-27T22:30:53.857Z,9.40
2019-04-27T22:33:23.161Z,9.97
2019-04-27T22:35:52.476Z,9.73
2019-04-27T22:38:21.802Z,9.87
2019-04-27T22:40:58.858Z,9.53
2019-04-27T22:43:47.743Z,10.03
2019-04-27T22:46:21.806Z,9.97
2019-04-27T22:48:51.734Z,10.30
2019-04-27T22:51:21.213Z,11.20
2019-04-27T22:53:51.296Z,11.10
2019-04-27T22:56:22.291Z,11.30
2019-04-27T22:59:06.804Z,11.00
2019-04-27T23:01:37.761Z,10.97
2019-04-27T23:04:14.699Z,10.87
2019-04-27T23:06:44.025Z,10.67
2019-04-27T23:09:13.704Z,11.30
2019-04-27T23:11:44.652Z,10.93
2019-04-27T23:14:13.959Z,10.53
2019-04-27T23:16:45.158Z,10.27
2019-04-27T23:19:14.465Z,11.63
2019-04-27T23:21:44.689Z,10.37
2019-04-27T23:24:14.000Z,10.33
2019-04-27T23:26:43.320Z,10.67
2019-04-27T23:29:15.702Z,10.00
2019-04-27T23:31:45.289Z,10.53
2019-04-27T23:34:14.606Z,9.93
2019-04-27T23:36:44.388Z,10.83
2019-04-27T23:39:14.766Z,10.70
2019-04-27T23:41:44.097Z,9.90
2019-04-27T23:44:13.399Z,10.40
2019-04-27T23:46:42.722Z,10.37
2019-04-27T23:49:12.183Z,10.03
2019-04-27T23:51:46.097Z,9.93
2019-04-27T23:54:15.399Z,9.87
2019-04-27T23:56:44.712Z,9.13
2019-04-27T23:59:24.718Z,8.50
